Weather History for New Richmond, WI

Change the Weather History Date:

Friday, March 28, 2014

  Actual Average (KMSP) Record (KMSP)
Temperature  
Mean Temperature 28 °F 38 °F  
Max Temperature 34 °F 48 °F 78 °F (1946)
Min Temperature 23 °F 29 °F -1 °F (1923)
Degree Days  
Heating Degree Days 36 27  
Month to date heating degree days 922  
Since 1 July heating degree days 6712  
Cooling Degree Days 0 0  
Month to date cooling degree days 0  
Year to date cooling degree days 0  
Moisture  
Dew Point 21 °F    
Average Humidity 72    
Maximum Humidity 94    
Minimum Humidity 48    
Precipitation  
Precipitation 0.13 in 0.06 in 1.08 in (1896)
Month to date precipitation 1.67  
Year to date precipitation 3.34  
Snow  
Snow 0.00 in 0.30 in 6.50 in (1894)
Month to date snowfall 9.8  
Since 1 July snowfall 51.5  
Snow Depth -    
Sea Level Pressure  
Sea Level Pressure 30.04 in    
Wind  
Wind Speed 11 mph (NNW)    
Max Wind Speed 21 mph    
Max Gust Speed 28 mph    
Visibility 10 miles    
Events      
T = Trace of Precipitation, MM = Missing Value Source: NWS Daily Summary

Daily Weather History Graph

Daily Weather History Graph

Search for Another Location

Airport:

Trip Planner

Search our weather history database for the weather conditions in past years. The results will help you decide how hot, cold, wet, or windy it might be!

Date:

Astronomy

Mar. 28, 2014 Rise Set
Actual Time 6:58 AM CDT 7:32 PM CDT
Civil Twilight 6:28 AM CDT 8:02 PM CDT
Nautical Twilight 5:53 AM CDT 8:37 PM CDT
Astronomical Twilight 5:17 AM CDT 9:14 PM CDT
Moon 5:35 AM CDT (3/28) 5:25 PM CDT (3/28)
Length of Visible Light 13h 34m
Length of Day
12h 34m
Waning Crescent, 6% of the Moon is Illuminated
Mar 28
Waning Crescent
Mar 30
New
Apr 7
First Quarter
Apr 15
Full
Apr 22
Last Quarter

Hourly Weather History & Observations

Time (CDT) Temp. Windchill Dew Point Humidity Pressure Visibility Wind Dir Wind Speed Gust Speed Precip Events Conditions
12:15 AM 29.8 °F 17.0 °F 26.8 °F 88% 29.72 in 10.0 mi North 20.7 mph 27.6 mph N/A   Overcast
12:35 AM 29.8 °F 18.0 °F 27.0 °F 89% 29.73 in 10.0 mi North 17.3 mph 23.0 mph N/A   Overcast
12:55 AM 29.8 °F 17.0 °F 27.0 °F 89% 29.74 in 10.0 mi North 20.7 mph 26.5 mph N/A   Overcast
1:15 AM 29.8 °F 19.8 °F 27.1 °F 90% 29.75 in 10.0 mi North 12.7 mph 21.9 mph N/A   Overcast
1:35 AM 29.8 °F 18.9 °F 27.5 °F 91% 29.76 in 10.0 mi North 15.0 mph 20.7 mph N/A   Overcast
1:55 AM 29.8 °F 19.3 °F 27.5 °F 91% 29.77 in 10.0 mi North 13.8 mph 18.4 mph N/A   Overcast
2:15 AM 29.8 °F 18.9 °F 27.1 °F 90% 29.78 in 10.0 mi North 15.0 mph - N/A   Overcast
2:35 AM 29.8 °F 17.0 °F 27.7 °F 92% 29.79 in 10.0 mi North 20.7 mph 24.2 mph N/A   Overcast
2:55 AM 29.8 °F 18.4 °F 26.8 °F 88% 29.80 in 10.0 mi North 16.1 mph 21.9 mph N/A   Overcast
3:15 AM 29.8 °F 18.4 °F 26.4 °F 87% 29.81 in 10.0 mi North 16.1 mph - N/A   Overcast
3:35 AM 29.7 °F 19.1 °F 26.4 °F 88% 29.82 in 10.0 mi North 13.8 mph 19.6 mph N/A   Overcast
3:55 AM 29.7 °F 20.1 °F 25.5 °F 85% 29.83 in 10.0 mi North 11.5 mph - N/A   Overcast
4:15 AM 29.3 °F 20.2 °F 26.1 °F 88% 29.85 in 10.0 mi North 10.4 mph - N/A   Overcast
4:35 AM 28.6 °F 18.7 °F 25.5 °F 88% 29.86 in 10.0 mi North 11.5 mph - N/A   Mostly Cloudy
4:55 AM 26.6 °F 17.5 °F 24.3 °F 91% 29.88 in 10.0 mi NNW 9.2 mph - N/A   Scattered Clouds
5:15 AM 26.1 °F 17.6 °F 23.9 °F 92% 29.89 in 10.0 mi NW 8.1 mph - N/A   Clear
5:35 AM 25.5 °F 17.8 °F 23.5 °F 92% 29.90 in 10.0 mi NW 6.9 mph - N/A   Clear
5:55 AM 24.8 °F 16.9 °F 23.0 °F 93% 29.91 in 10.0 mi NW 6.9 mph - N/A   Clear
6:15 AM 24.4 °F 17.5 °F 22.6 °F 93% 29.93 in 10.0 mi NW 5.8 mph - N/A   Clear
6:35 AM 23.9 °F 15.8 °F 22.3 °F 94% 29.94 in 10.0 mi NW 6.9 mph - N/A   Clear
6:55 AM 23.4 °F 15.2 °F 21.4 °F 92% 29.95 in 10.0 mi NNW 6.9 mph - N/A   Clear
7:15 AM 23.4 °F 14.3 °F 21.2 °F 91% 29.97 in 10.0 mi NNW 8.1 mph - N/A   Clear
7:35 AM 23.7 °F 14.7 °F 21.0 °F 89% 29.98 in 10.0 mi NNW 8.1 mph - N/A   Clear
7:55 AM 24.6 °F 15.1 °F 21.2 °F 87% 29.99 in 10.0 mi NNW 9.2 mph - N/A   Clear
8:15 AM 25.3 °F 16.0 °F 21.4 °F 85% 29.99 in 10.0 mi North 9.2 mph - N/A   Clear
8:35 AM 25.7 °F 16.4 °F 21.2 °F 83% 29.99 in 10.0 mi North 9.2 mph - N/A   Clear
8:55 AM 25.7 °F 18.0 °F 21.2 °F 83% 30.01 in 10.0 mi North 6.9 mph - N/A   Clear
9:15 AM 27.3 °F 19.1 °F 20.5 °F 75% 30.01 in 10.0 mi North 8.1 mph - N/A   Clear
9:35 AM 28.2 °F 22.0 °F 19.9 °F 71% 30.02 in 10.0 mi North 5.8 mph - N/A   Clear
9:55 AM 28.8 °F 23.7 °F 20.3 °F 71% 30.04 in 10.0 mi North 4.6 mph - N/A   Clear
10:15 AM 29.5 °F 24.5 °F 20.3 °F 69% 30.05 in 10.0 mi North 4.6 mph - 0.01 in   Clear
10:35 AM 30.2 °F 26.7 °F 20.8 °F 68% 30.06 in 10.0 mi NW 3.5 mph - 0.05 in   Clear
10:55 AM 30.9 °F 26.2 °F 20.5 °F 65% 30.05 in 10.0 mi North 4.6 mph - 0.06 in   Clear
11:15 AM 31.3 °F 25.6 °F 20.8 °F 65% 30.06 in 10.0 mi NNW 5.8 mph - 0.02 in   Clear
11:35 AM 31.6 °F 26.0 °F 21.6 °F 66% 30.06 in 10.0 mi North 5.8 mph - 0.03 in   Clear
11:55 AM 32.0 °F - 21.6 °F 65% 30.08 in 10.0 mi Calm Calm - 0.05 in   Clear
12:15 PM 32.4 °F - 22.1 °F 66% 30.10 in 10.0 mi Calm Calm - 0.02 in   Clear
12:35 PM 33.3 °F 28.9 °F 22.3 °F 64% 30.10 in 10.0 mi NW 4.6 mph - 0.02 in   Scattered Clouds
12:55 PM 33.6 °F 28.4 °F 23.0 °F 65% 30.11 in 10.0 mi West 5.8 mph - 0.02 in   Clear
1:15 PM 33.6 °F 29.4 °F 21.9 °F 62% 30.10 in 10.0 mi North 4.6 mph - N/A   Clear
1:35 PM 33.8 °F 28.6 °F 21.6 °F 61% 30.11 in 10.0 mi NNW 5.8 mph - N/A   Clear
1:55 PM 33.8 °F 25.8 °F 21.7 °F 61% 30.10 in 10.0 mi NNW 10.4 mph - N/A   Clear
2:15 PM 33.6 °F 27.5 °F 21.7 °F 62% 30.11 in 10.0 mi NW 6.9 mph - N/A   Clear
2:35 PM 34.3 °F 27.7 °F 21.2 °F 59% 30.12 in 10.0 mi NNW 8.1 mph - N/A   Clear
2:55 PM 33.4 °F 27.3 °F 20.3 °F 59% 30.12 in 10.0 mi NW 6.9 mph - N/A   Clear
3:15 PM 33.3 °F 27.1 °F 21.6 °F 62% 30.13 in 10.0 mi NW 6.9 mph - N/A   Clear
3:35 PM 33.8 °F 26.4 °F 21.2 °F 60% 30.13 in 10.0 mi NW 9.2 mph - N/A   Clear
3:55 PM 34.0 °F 26.6 °F 20.8 °F 59% 30.13 in 10.0 mi NNW 9.2 mph - N/A   Clear
4:15 PM 34.5 °F 27.9 °F 19.4 °F 54% 30.14 in 10.0 mi NW 8.1 mph - N/A   Clear
4:35 PM 33.8 °F 26.4 °F 19.2 °F 55% 30.15 in 10.0 mi NW 9.2 mph - N/A   Clear
4:55 PM 33.4 °F 26.6 °F 18.7 °F 55% 30.15 in 10.0 mi NNW 8.1 mph - N/A   Clear
5:15 PM 33.3 °F 25.1 °F 15.6 °F 48% 30.16 in 10.0 mi NW 10.4 mph - N/A   Clear
5:35 PM 32.9 °F 25.9 °F 15.4 °F 49% 30.16 in 10.0 mi NW 8.1 mph - N/A   Clear
5:55 PM 32.4 °F 26.0 °F 15.8 °F 51% 30.17 in 10.0 mi NW 6.9 mph - N/A   Clear
6:15 PM 32.2 °F 25.8 °F 14.9 °F 49% 30.18 in 10.0 mi NNW 6.9 mph - N/A   Clear
6:35 PM 32.0 °F 24.8 °F 15.6 °F 51% 30.18 in 10.0 mi NNW 8.1 mph - N/A   Mostly Cloudy
6:55 PM 32.0 °F 25.6 °F 16.5 °F 53% 30.18 in 10.0 mi NNW 6.9 mph - N/A   Overcast
7:15 PM 32.0 °F 24.8 °F 16.7 °F 53% 30.18 in 10.0 mi NNW 8.1 mph - N/A   Overcast
7:35 PM 31.8 °F 26.2 °F 18.0 °F 57% 30.18 in 10.0 mi NNW 5.8 mph - N/A   Overcast
7:55 PM 31.8 °F 26.2 °F 18.0 °F 57% 30.18 in 10.0 mi NNW 5.8 mph - N/A   Overcast
8:15 PM 30.9 °F 27.5 °F 18.7 °F 61% 30.19 in 10.0 mi NW 3.5 mph - N/A   Overcast
8:35 PM 30.9 °F 27.5 °F 18.0 °F 59% 30.19 in 10.0 mi NW 3.5 mph - N/A   Scattered Clouds
8:55 PM 30.4 °F 24.5 °F 18.0 °F 60% 30.20 in 10.0 mi NW 5.8 mph - N/A   Scattered Clouds
9:15 PM 29.5 °F 22.5 °F 19.2 °F 66% 30.20 in 10.0 mi NNW 6.9 mph - N/A   Mostly Cloudy
9:35 PM 29.3 °F 23.2 °F 19.0 °F 66% 30.21 in 10.0 mi NW 5.8 mph - N/A   Overcast
9:55 PM 28.9 °F 23.9 °F 18.9 °F 66% 30.21 in 10.0 mi NNW 4.6 mph - N/A   Overcast
10:15 PM 28.2 °F 23.1 °F 18.7 °F 67% 30.22 in 10.0 mi NNW 4.6 mph - N/A   Mostly Cloudy
10:35 PM 27.5 °F 23.6 °F 17.6 °F 66% 30.23 in 10.0 mi NW 3.5 mph - N/A   Scattered Clouds
10:55 PM 27.0 °F 20.5 °F 17.1 °F 66% 30.23 in 10.0 mi NNW 5.8 mph - N/A   Clear
11:15 PM 25.5 °F 19.9 °F 16.9 °F 70% 30.24 in 10.0 mi NW 4.6 mph - N/A   Clear
11:35 PM 24.6 °F 20.3 °F 16.5 °F 71% 30.24 in 10.0 mi NNW 3.5 mph - N/A   Clear
11:55 PM 23.7 °F 17.8 °F 16.2 °F 73% 30.24 in 10.0 mi NNW 4.6 mph - N/A   Clear